createdAt,value
2018-03-04T00:00:51.327Z,993.13
2018-03-04T00:02:44.290Z,993.16
2018-03-04T00:03:44.342Z,993.14
2018-03-04T00:05:37.334Z,993.20
2018-03-04T00:06:37.363Z,993.16
2018-03-04T00:08:30.362Z,993.18
2018-03-04T00:09:30.393Z,993.17
2018-03-04T00:11:23.354Z,993.18
2018-03-04T00:12:23.406Z,993.19
2018-03-04T00:14:16.396Z,993.14
2018-03-04T00:15:16.424Z,993.16
2018-03-04T00:17:09.390Z,993.10
2018-03-04T00:18:09.442Z,993.12
2018-03-04T00:20:02.430Z,993.12
2018-03-04T00:21:02.464Z,993.12
2018-03-04T00:22:55.438Z,993.10
2018-03-04T00:23:55.480Z,993.12
2018-03-04T00:25:48.476Z,993.13
2018-03-04T00:26:48.500Z,993.12
2018-03-04T00:28:41.488Z,993.10
2018-03-04T00:29:41.519Z,993.11
2018-03-04T00:31:34.508Z,993.09
2018-03-04T00:32:34.543Z,993.03
2018-03-04T00:34:27.529Z,992.99
2018-03-04T00:35:27.559Z,993.04
2018-03-04T00:37:20.526Z,993.06
2018-03-04T00:38:20.578Z,993.08
2018-03-04T00:40:13.566Z,993.06
2018-03-04T00:41:13.596Z,993.07
2018-03-04T00:43:06.569Z,993.05
2018-03-04T00:44:06.628Z,993.06
2018-03-04T00:45:59.602Z,993.14
2018-03-04T00:46:59.633Z,993.13
2018-03-04T00:48:52.620Z,993.07
2018-03-04T00:49:52.650Z,993.05
2018-03-04T00:51:45.645Z,993.09
2018-03-04T00:52:45.676Z,993.08
2018-03-04T00:54:38.664Z,993.14
2018-03-04T00:55:38.694Z,993.12
2018-03-04T00:57:31.668Z,993.18
2018-03-04T00:58:31.714Z,993.15
2018-03-04T01:00:24.703Z,993.15
2018-03-04T01:01:24.735Z,993.15
2018-03-04T01:03:17.702Z,993.17
2018-03-04T01:04:17.758Z,993.10
2018-03-04T01:06:10.742Z,993.12
2018-03-04T01:07:10.775Z,993.11
2018-03-04T01:09:03.766Z,993.10
2018-03-04T01:10:03.790Z,993.10
2018-03-04T01:11:56.760Z,993.10
2018-03-04T01:12:56.810Z,993.11
2018-03-04T01:14:49.796Z,993.12
2018-03-04T01:15:49.827Z,993.09
2018-03-04T01:17:42.808Z,993.10
2018-03-04T01:18:42.848Z,993.02
2018-03-04T01:20:35.835Z,993.05
2018-03-04T01:21:35.866Z,993.05
2018-03-04T01:23:28.843Z,993.04
2018-03-04T01:24:28.893Z,993.04
2018-03-04T01:26:21.881Z,993.02
2018-03-04T01:27:21.912Z,992.99
2018-03-04T01:29:14.903Z,992.99
2018-03-04T01:30:14.935Z,993.01
2018-03-04T01:32:07.924Z,993.00
2018-03-04T01:33:07.953Z,993.04
2018-03-04T01:35:00.951Z,993.04
2018-03-04T01:36:00.984Z,993.01
2018-03-04T01:37:53.954Z,993.00
2018-03-04T01:38:54.000Z,992.95
2018-03-04T01:40:46.990Z,992.94
2018-03-04T01:41:47.020Z,992.90
2018-03-04T01:43:39.989Z,992.88
2018-03-04T01:44:40.040Z,992.87
2018-03-04T01:46:33.030Z,992.87
2018-03-04T01:47:33.056Z,992.84
2018-03-04T01:49:26.028Z,992.87
2018-03-04T01:50:26.078Z,992.86
2018-03-04T01:52:19.062Z,992.85
2018-03-04T01:53:19.096Z,992.85
2018-03-04T01:55:12.081Z,992.82
2018-03-04T01:56:12.112Z,992.82
2018-03-04T01:58:05.090Z,992.82
2018-03-04T01:59:05.139Z,992.82
2018-03-04T02:00:58.129Z,992.81
2018-03-04T02:01:58.157Z,992.86
2018-03-04T02:03:51.133Z,992.80
2018-03-04T02:04:51.185Z,992.76
2018-03-04T02:06:44.188Z,992.75
2018-03-04T02:07:44.202Z,992.74
2018-03-04T02:09:37.196Z,992.68
2018-03-04T02:10:37.221Z,992.71
2018-03-04T02:12:30.187Z,992.67
2018-03-04T02:13:30.240Z,992.71
2018-03-04T02:15:23.227Z,992.68
2018-03-04T02:16:23.259Z,992.65
2018-03-04T02:18:16.226Z,992.69
2018-03-04T02:19:16.278Z,992.69
2018-03-04T02:21:09.269Z,992.68
2018-03-04T02:22:09.298Z,992.68
2018-03-04T02:24:02.270Z,992.63
2018-03-04T02:25:02.337Z,992.61
2018-03-04T02:26:55.304Z,992.60
2018-03-04T02:27:55.334Z,992.62
2018-03-04T02:29:48.304Z,992.62
2018-03-04T02:30:48.354Z,992.62
2018-03-04T02:32:41.354Z,992.59
2018-03-04T02:33:41.376Z,992.65
2018-03-04T02:35:34.363Z,992.60
2018-03-04T02:36:34.420Z,992.68
2018-03-04T02:38:27.372Z,992.63
2018-03-04T02:39:27.413Z,992.63
2018-03-04T02:41:20.406Z,992.69
2018-03-04T02:42:20.435Z,992.64
2018-03-04T02:44:13.399Z,992.65
2018-03-04T02:45:13.451Z,992.63
2018-03-04T02:47:06.442Z,992.66
2018-03-04T02:48:06.468Z,992.63
2018-03-04T02:49:59.434Z,992.66
2018-03-04T02:50:59.488Z,992.63
2018-03-04T02:52:52.478Z,992.63
2018-03-04T02:53:52.511Z,992.62
2018-03-04T02:55:45.502Z,992.61
2018-03-04T02:56:45.531Z,992.61
2018-03-04T02:58:38.501Z,992.59
2018-03-04T02:59:38.554Z,992.58
2018-03-04T03:01:31.543Z,992.60
2018-03-04T03:02:31.579Z,992.59
2018-03-04T03:04:24.541Z,992.58
2018-03-04T03:05:24.593Z,992.55
2018-03-04T03:07:17.585Z,992.54
2018-03-04T03:08:17.620Z,992.50
2018-03-04T03:10:10.588Z,992.53
2018-03-04T03:11:10.634Z,992.53
2018-03-04T03:13:03.624Z,992.49
2018-03-04T03:14:03.654Z,992.47
2018-03-04T03:15:56.642Z,992.52
2018-03-04T03:16:56.673Z,992.49
2018-03-04T03:18:49.639Z,992.49
2018-03-04T03:19:49.690Z,992.47
2018-03-04T03:21:42.681Z,992.47
2018-03-04T03:22:42.708Z,992.49
2018-03-04T03:24:35.690Z,992.47
2018-03-04T03:25:35.733Z,992.49
2018-03-04T03:27:28.720Z,992.47
2018-03-04T03:28:28.754Z,992.41
2018-03-04T03:30:21.730Z,992.40
2018-03-04T03:31:21.774Z,992.38
2018-03-04T03:33:14.765Z,992.35
2018-03-04T03:34:14.798Z,992.33
2018-03-04T03:36:07.786Z,992.29
2018-03-04T03:37:07.819Z,992.31
2018-03-04T03:39:00.793Z,992.31
2018-03-04T03:40:00.843Z,992.30
2018-03-04T03:41:53.830Z,992.25
2018-03-04T03:42:53.863Z,992.26
2018-03-04T03:44:46.829Z,992.23
2018-03-04T03:45:46.883Z,992.24
2018-03-04T03:47:40.381Z,992.23
2018-03-04T03:48:40.411Z,992.25
2018-03-04T03:50:33.377Z,992.19
2018-03-04T03:51:33.429Z,992.18
2018-03-04T03:53:26.417Z,992.15
2018-03-04T03:54:26.447Z,992.13
2018-03-04T03:56:19.437Z,992.13
2018-03-04T03:57:19.468Z,992.09
2018-03-04T03:59:12.436Z,992.16
2018-03-04T04:00:12.485Z,992.16
2018-03-04T04:02:05.476Z,992.14
2018-03-04T04:03:05.569Z,992.14
2018-03-04T04:04:58.484Z,992.08
2018-03-04T04:05:58.537Z,992.08
2018-03-04T04:07:51.537Z,992.03
2018-03-04T04:08:51.555Z,992.02
2018-03-04T04:10:44.524Z,992.01
2018-03-04T04:11:44.577Z,992.03
2018-03-04T04:13:37.759Z,992.01
2018-03-04T04:14:37.595Z,991.97
2018-03-04T04:16:30.588Z,991.94
2018-03-04T04:17:30.621Z,991.97
2018-03-04T04:19:23.599Z,991.91
2018-03-04T04:20:23.649Z,991.92
2018-03-04T04:22:16.636Z,991.87
2018-03-04T04:23:16.669Z,991.82
2018-03-04T04:25:09.665Z,991.83
2018-03-04T04:26:09.687Z,991.79
2018-03-04T04:28:02.685Z,991.75
2018-03-04T04:29:02.715Z,991.78
2018-03-04T04:30:55.691Z,991.79
2018-03-04T04:31:55.736Z,991.78
2018-03-04T04:33:48.726Z,991.74
2018-03-04T04:34:48.755Z,991.74
2018-03-04T04:36:41.754Z,991.86
2018-03-04T04:37:41.786Z,991.83
2018-03-04T04:39:34.757Z,991.79
2018-03-04T04:40:34.808Z,991.77
2018-03-04T04:42:27.800Z,991.76
2018-03-04T04:43:27.827Z,991.75
2018-03-04T04:45:20.797Z,991.73
2018-03-04T04:46:20.848Z,991.71
2018-03-04T04:48:14.347Z,991.67
2018-03-04T04:49:14.375Z,991.67
2018-03-04T04:51:07.342Z,991.64
2018-03-04T04:52:07.394Z,991.62
2018-03-04T04:54:00.384Z,991.63
2018-03-04T04:55:00.414Z,991.59
2018-03-04T04:56:53.402Z,991.56
2018-03-04T04:57:53.437Z,991.58
2018-03-04T04:59:46.412Z,991.55
2018-03-04T05:00:46.469Z,991.59
2018-03-04T05:02:39.453Z,991.55
2018-03-04T05:03:39.485Z,991.53
2018-03-04T05:05:32.453Z,991.54
2018-03-04T05:06:32.505Z,991.53
2018-03-04T05:08:25.495Z,991.51
2018-03-04T05:09:25.539Z,991.52
2018-03-04T05:11:18.496Z,991.50
2018-03-04T05:12:18.544Z,991.55
2018-03-04T05:14:11.534Z,991.58
2018-03-04T05:15:11.566Z,991.58
2018-03-04T05:17:04.533Z,991.59
2018-03-04T05:18:04.593Z,991.61
2018-03-04T05:19:57.576Z,991.64
2018-03-04T05:20:57.604Z,991.62
2018-03-04T05:22:50.574Z,991.65
2018-03-04T05:23:50.627Z,991.62
2018-03-04T05:25:43.716Z,991.62
2018-03-04T05:26:43.657Z,991.59
2018-03-04T05:28:36.733Z,991.59
2018-03-04T05:29:36.687Z,991.58
2018-03-04T05:31:29.643Z,991.54
2018-03-04T05:32:29.694Z,991.51
2018-03-04T05:34:22.778Z,991.51
2018-03-04T05:35:22.734Z,991.49
2018-03-04T05:37:15.700Z,991.48
2018-03-04T05:38:15.778Z,991.50
2018-03-04T05:40:08.777Z,991.49
2018-03-04T05:41:08.791Z,991.50
2018-03-04T05:43:01.768Z,991.52
2018-03-04T05:44:01.813Z,991.48
2018-03-04T05:45:54.841Z,991.52
2018-03-04T05:46:54.835Z,991.54
2018-03-04T05:48:48.271Z,991.56
2018-03-04T05:49:48.317Z,991.53
2018-03-04T05:51:41.824Z,991.54
2018-03-04T05:52:41.846Z,991.54
2018-03-04T05:54:34.814Z,991.62
2018-03-04T05:55:34.868Z,991.56
2018-03-04T05:57:27.856Z,991.55
2018-03-04T05:58:27.886Z,991.58
2018-03-04T06:00:20.877Z,991.58
2018-03-04T06:01:20.916Z,991.60
2018-03-04T06:03:13.875Z,991.62
2018-03-04T06:04:13.934Z,991.60
2018-03-04T06:06:06.927Z,991.64
2018-03-04T06:07:06.952Z,991.64
2018-03-04T06:08:59.921Z,991.68
2018-03-04T06:09:59.972Z,991.66
2018-03-04T06:11:52.960Z,991.73
2018-03-04T06:12:52.998Z,991.73
2018-03-04T06:14:45.959Z,991.74
2018-03-04T06:15:46.022Z,991.77
2018-03-04T06:17:38.998Z,991.77
2018-03-04T06:18:39.033Z,991.73
2018-03-04T06:20:32.002Z,991.73
2018-03-04T06:21:32.051Z,991.70
2018-03-04T06:23:25.047Z,991.67
2018-03-04T06:24:25.077Z,991.68
2018-03-04T06:26:18.049Z,991.67
2018-03-04T06:27:18.100Z,991.73
2018-03-04T06:29:11.089Z,991.71
2018-03-04T06:30:11.119Z,991.72
2018-03-04T06:32:04.123Z,991.75
2018-03-04T06:33:04.149Z,991.70
2018-03-04T06:34:57.140Z,991.73
2018-03-04T06:35:57.172Z,991.75
2018-03-04T06:37:50.165Z,991.80
2018-03-04T06:38:50.255Z,991.83
2018-03-04T06:40:43.166Z,991.80
2018-03-04T06:41:43.220Z,991.83
2018-03-04T06:43:36.230Z,991.80
2018-03-04T06:44:36.383Z,991.82
2018-03-04T06:46:29.365Z,991.79
2018-03-04T06:47:29.393Z,991.78
2018-03-04T06:49:22.388Z,991.71
2018-03-04T06:50:22.422Z,991.71
2018-03-04T06:52:15.900Z,991.72
2018-03-04T06:53:15.952Z,991.77
2018-03-04T06:55:08.970Z,991.73
2018-03-04T06:56:08.974Z,991.74
2018-03-04T06:58:01.956Z,991.76
2018-03-04T06:59:02.010Z,991.77
2018-03-04T07:00:55.011Z,991.77
2018-03-04T07:01:55.039Z,991.81
2018-03-04T07:03:48.034Z,991.84
2018-03-04T07:04:48.074Z,991.81
2018-03-04T07:06:41.054Z,991.80
2018-03-04T07:07:41.084Z,991.81
2018-03-04T07:09:34.079Z,991.78
2018-03-04T07:10:34.104Z,991.77
2018-03-04T07:12:27.072Z,991.75
2018-03-04T07:13:27.126Z,991.78
2018-03-04T07:15:20.138Z,991.81
2018-03-04T07:16:20.149Z,991.81
2018-03-04T07:18:13.118Z,991.83
2018-03-04T07:19:13.231Z,991.84
2018-03-04T07:21:06.209Z,991.84
2018-03-04T07:22:06.203Z,991.85
2018-03-04T07:23:59.165Z,991.89
2018-03-04T07:24:59.214Z,991.91
2018-03-04T07:26:52.205Z,991.92
2018-03-04T07:27:52.242Z,991.88
2018-03-04T07:29:45.224Z,991.93
2018-03-04T07:30:45.258Z,991.95
2018-03-04T07:32:38.260Z,991.93
2018-03-04T07:33:38.279Z,991.91
2018-03-04T07:35:31.250Z,991.92
2018-03-04T07:36:31.300Z,991.91
2018-03-04T07:38:24.289Z,991.89
2018-03-04T07:39:24.322Z,991.89
2018-03-04T07:41:17.327Z,991.86
2018-03-04T07:42:17.345Z,991.90
2018-03-04T07:44:10.327Z,991.87
2018-03-04T07:45:10.373Z,991.93
2018-03-04T07:47:03.362Z,991.93
2018-03-04T07:48:03.394Z,991.95
2018-03-04T07:49:56.376Z,991.95
2018-03-04T07:50:56.415Z,991.91
2018-03-04T07:52:49.918Z,991.89
2018-03-04T07:53:49.945Z,991.89
2018-03-04T07:55:42.962Z,991.93
2018-03-04T07:56:42.971Z,991.95
2018-03-04T07:58:35.967Z,991.96
2018-03-04T07:59:36.031Z,991.98
2018-03-04T08:01:28.963Z,991.98
2018-03-04T08:02:29.017Z,991.97
2018-03-04T08:04:22.006Z,991.94
2018-03-04T08:05:22.038Z,991.95
2018-03-04T08:07:15.025Z,991.98
2018-03-04T08:08:15.071Z,991.99
2018-03-04T08:10:08.060Z,991.94
2018-03-04T08:11:08.098Z,991.95
2018-03-04T08:13:01.083Z,991.97
2018-03-04T08:14:01.115Z,991.96
2018-03-04T08:15:54.088Z,991.93
2018-03-04T08:16:54.137Z,991.91
2018-03-04T08:18:47.128Z,991.89
2018-03-04T08:19:47.160Z,991.86
2018-03-04T08:21:40.132Z,991.89
2018-03-04T08:22:40.183Z,991.94
2018-03-04T08:24:33.173Z,991.95
2018-03-04T08:25:33.206Z,991.93
2018-03-04T08:27:26.176Z,991.92
2018-03-04T08:28:26.228Z,991.94
2018-03-04T08:30:19.228Z,991.95
2018-03-04T08:31:19.254Z,991.99
2018-03-04T08:33:12.220Z,991.98
2018-03-04T08:34:12.273Z,991.98
2018-03-04T08:36:05.270Z,992.01
2018-03-04T08:37:05.298Z,992.02
2018-03-04T08:38:58.303Z,992.05
2018-03-04T08:39:58.323Z,992.03
2018-03-04T08:41:51.302Z,992.04
2018-03-04T08:42:51.354Z,992.04
2018-03-04T08:44:44.377Z,992.03
2018-03-04T08:45:44.388Z,992.01
2018-03-04T08:47:37.356Z,992.01
2018-03-04T08:48:37.438Z,992.01
2018-03-04T08:50:30.417Z,992.05
2018-03-04T08:51:30.431Z,991.96
2018-03-04T08:53:23.406Z,992.00
2018-03-04T08:54:23.460Z,992.05
2018-03-04T08:56:16.447Z,992.02
2018-03-04T08:57:16.708Z,992.00
2018-03-04T08:59:09.462Z,992.06
2018-03-04T09:00:09.508Z,992.07
2018-03-04T09:02:02.498Z,992.11
2018-03-04T09:03:02.569Z,992.13
2018-03-04T09:04:55.527Z,992.13
2018-03-04T09:05:55.554Z,992.13
2018-03-04T09:07:50.701Z,992.10
2018-03-04T09:08:48.579Z,992.13
2018-03-04T09:10:41.581Z,992.07
2018-03-04T09:11:41.605Z,992.12
2018-03-04T09:13:34.581Z,992.16
2018-03-04T09:14:34.636Z,992.17
2018-03-04T09:16:27.626Z,992.24
2018-03-04T09:17:27.659Z,992.26
2018-03-04T09:19:20.662Z,992.26
2018-03-04T09:20:20.699Z,992.21
2018-03-04T09:22:13.692Z,992.15
2018-03-04T09:23:13.724Z,992.10
2018-03-04T09:25:06.720Z,992.02
2018-03-04T09:26:06.751Z,991.98
2018-03-04T09:27:59.743Z,992.02
2018-03-04T09:28:59.777Z,992.06
2018-03-04T09:30:52.777Z,992.03
2018-03-04T09:31:52.809Z,992.07
2018-03-04T09:33:45.790Z,992.10
2018-03-04T09:34:45.842Z,992.10
2018-03-04T09:36:38.847Z,992.15
2018-03-04T09:37:38.867Z,992.14
2018-03-04T09:39:31.852Z,992.09
2018-03-04T09:40:31.896Z,992.09
2018-03-04T09:42:24.906Z,992.05
2018-03-04T09:43:24.929Z,992.05
2018-03-04T09:45:17.916Z,992.05
2018-03-04T09:46:17.956Z,992.08
2018-03-04T09:48:10.988Z,992.07
2018-03-04T09:49:10.996Z,992.07
2018-03-04T09:51:04.017Z,992.05
2018-03-04T09:52:04.011Z,992.06
2018-03-04T09:53:57.060Z,992.04
2018-03-04T09:54:57.040Z,992.08
2018-03-04T09:56:50.087Z,992.08
2018-03-04T09:57:50.074Z,992.07
2018-03-04T09:59:43.042Z,992.04
2018-03-04T10:00:43.097Z,991.99
2018-03-04T10:02:36.103Z,991.94
2018-03-04T10:03:36.146Z,991.93
2018-03-04T10:05:29.112Z,991.92
2018-03-04T10:06:29.183Z,991.95
2018-03-04T10:08:22.189Z,991.87
2018-03-04T10:09:22.209Z,991.79
2018-03-04T10:11:15.185Z,991.76
2018-03-04T10:12:15.234Z,991.77
2018-03-04T10:14:08.231Z,991.81
2018-03-04T10:15:08.266Z,991.81
2018-03-04T10:17:01.270Z,991.81
2018-03-04T10:18:01.400Z,991.81
2018-03-04T10:19:54.297Z,991.74
2018-03-04T10:20:54.331Z,991.73
2018-03-04T10:22:47.337Z,991.73
2018-03-04T10:23:47.370Z,991.66
2018-03-04T10:27:41.492Z,991.71
2018-03-04T10:28:41.529Z,991.72
2018-03-04T10:36:10.782Z,991.71
2018-03-04T10:37:10.806Z,991.73
2018-03-04T10:39:03.842Z,991.78
2018-03-04T10:40:03.877Z,991.78
2018-03-04T10:41:56.837Z,991.75
2018-03-04T10:42:56.891Z,991.76
2018-03-04T10:44:49.887Z,991.64
2018-03-04T10:45:49.922Z,991.66
2018-03-04T10:47:42.904Z,991.67
2018-03-04T10:48:42.958Z,991.65
2018-03-04T10:50:35.959Z,991.68
2018-03-04T10:51:36.008Z,991.60
2018-03-04T10:53:28.989Z,991.63
2018-03-04T10:54:29.022Z,991.63
2018-03-04T10:56:21.999Z,991.62
2018-03-04T10:57:22.055Z,991.60
2018-03-04T10:59:15.056Z,991.53
2018-03-04T11:00:15.087Z,991.54
2018-03-04T11:02:08.066Z,991.56
2018-03-04T11:03:08.123Z,991.61
2018-03-04T11:05:01.122Z,991.56
2018-03-04T11:06:01.155Z,991.54
2018-03-04T11:09:41.725Z,991.49
2018-03-04T11:10:41.689Z,991.43
2018-03-04T11:12:35.675Z,991.40
2018-03-04T11:13:35.732Z,991.38
2018-03-04T11:15:28.730Z,991.35
2018-03-04T11:16:28.768Z,991.39
2018-03-04T11:18:21.744Z,991.40
2018-03-04T11:19:21.801Z,991.37
2018-03-04T11:21:15.315Z,991.29
2018-03-04T11:22:15.346Z,991.24
2018-03-04T11:24:08.460Z,991.19
2018-03-04T11:25:08.498Z,991.20
2018-03-04T11:27:01.496Z,991.24
2018-03-04T11:28:01.566Z,991.23
2018-03-04T11:29:55.610Z,991.21
2018-03-04T11:30:55.650Z,991.15
2018-03-04T11:32:49.143Z,991.08
2018-03-04T11:33:49.196Z,991.06
2018-03-04T11:35:42.193Z,991.03
2018-03-04T11:36:42.231Z,991.05
2018-03-04T11:38:35.206Z,991.07
2018-03-04T11:39:35.812Z,991.07
2018-03-04T11:41:28.483Z,991.04
2018-03-04T11:42:28.306Z,991.04
2018-03-04T11:44:21.305Z,991.00
2018-03-04T11:45:21.346Z,990.98
2018-03-04T11:47:14.325Z,991.03
2018-03-04T11:48:14.403Z,991.06
2018-03-04T11:50:07.378Z,991.06
2018-03-04T11:51:07.414Z,991.06
2018-03-04T11:53:01.457Z,991.10
2018-03-04T11:54:03.029Z,991.11
2018-03-04T11:55:54.908Z,991.20
2018-03-04T11:56:54.706Z,991.26
2018-03-04T11:58:47.692Z,991.24
2018-03-04T11:59:47.767Z,991.24
2018-03-04T12:01:40.750Z,991.12
2018-03-04T12:02:40.787Z,991.11
2018-03-04T12:04:33.766Z,991.08
2018-03-04T12:05:33.822Z,991.08
2018-03-04T12:07:26.823Z,991.12
2018-03-04T12:08:26.863Z,991.17
2018-03-04T12:10:19.861Z,991.05
2018-03-04T12:11:19.900Z,991.02
2018-03-04T12:13:12.884Z,990.97
2018-03-04T12:14:12.940Z,990.97
2018-03-04T12:16:05.962Z,990.89
2018-03-04T12:17:05.993Z,990.86
2018-03-04T12:18:58.974Z,990.83
2018-03-04T12:19:59.029Z,990.84
2018-03-04T12:21:52.025Z,990.84
2018-03-04T12:22:52.062Z,990.81
2018-03-04T12:24:45.043Z,990.77
2018-03-04T12:25:45.108Z,990.76
2018-03-04T12:27:38.119Z,990.76
2018-03-04T12:28:38.142Z,990.71
2018-03-04T12:30:31.119Z,990.72
2018-03-04T12:31:31.176Z,990.74
2018-03-04T12:33:24.182Z,990.80
2018-03-04T12:34:24.221Z,990.84
2018-03-04T12:36:17.225Z,990.72
2018-03-04T12:37:17.265Z,990.68
2018-03-04T12:39:10.257Z,990.60
2018-03-04T12:40:10.304Z,990.57
2018-03-04T12:42:03.304Z,990.63
2018-03-04T12:43:03.339Z,990.64
2018-03-04T12:44:56.326Z,990.61
2018-03-04T12:45:56.385Z,990.60
2018-03-04T12:47:49.393Z,990.59
2018-03-04T12:48:49.432Z,990.54
2018-03-04T12:50:42.417Z,990.50
2018-03-04T12:51:42.475Z,990.49
2018-03-04T12:53:35.478Z,990.47
2018-03-04T12:54:35.517Z,990.48
2018-03-04T12:56:28.534Z,990.46
2018-03-04T12:57:28.604Z,990.43
2018-03-04T12:59:21.545Z,990.37
2018-03-04T13:00:21.605Z,990.37
2018-03-04T13:02:15.114Z,990.33
2018-03-04T13:03:15.151Z,990.33
2018-03-04T13:05:08.139Z,990.40
2018-03-04T13:06:08.217Z,990.40
2018-03-04T13:08:01.207Z,990.31
2018-03-04T13:09:01.241Z,990.26
2018-03-04T13:10:54.230Z,990.23
2018-03-04T13:11:54.291Z,990.22
2018-03-04T13:13:47.805Z,990.17
2018-03-04T13:14:47.841Z,990.19
2018-03-04T13:16:41.335Z,990.16
2018-03-04T13:17:41.395Z,990.11
2018-03-04T13:19:34.398Z,990.12
2018-03-04T13:20:34.439Z,990.12
2018-03-04T13:22:27.965Z,990.07
2018-03-04T13:23:28.023Z,990.07
2018-03-04T13:25:21.024Z,990.03
2018-03-04T13:26:21.064Z,990.00
2018-03-04T13:28:14.064Z,989.93
2018-03-04T13:29:14.102Z,989.88
2018-03-04T13:31:07.599Z,989.92
2018-03-04T13:32:07.655Z,989.87
2018-03-04T13:34:00.653Z,989.84
2018-03-04T13:35:00.705Z,989.85
2018-03-04T13:36:54.192Z,989.78
2018-03-04T13:37:54.248Z,989.81
2018-03-04T13:39:47.256Z,989.84
2018-03-04T13:40:47.294Z,989.81
2018-03-04T13:42:40.270Z,989.78
2018-03-04T13:43:40.332Z,989.81
2018-03-04T13:45:33.337Z,989.71
2018-03-04T13:46:33.399Z,989.69
2018-03-04T13:48:26.357Z,989.64
2018-03-04T13:49:26.415Z,989.68
2018-03-04T13:51:19.426Z,989.71
2018-03-04T13:52:19.467Z,989.75
2018-03-04T13:54:12.465Z,989.71
2018-03-04T13:55:12.505Z,989.75
2018-03-04T13:57:05.495Z,989.67
2018-03-04T13:58:05.553Z,989.67
2018-03-04T13:59:58.557Z,989.66
2018-03-04T14:00:58.592Z,989.61
2018-03-04T14:02:51.579Z,989.59
2018-03-04T14:03:51.637Z,989.60
2018-03-04T14:05:44.639Z,989.60
2018-03-04T14:06:44.678Z,989.54
2018-03-04T14:08:37.668Z,989.58
2018-03-04T14:09:37.727Z,989.61
2018-03-04T14:11:31.249Z,989.66
2018-03-04T14:12:31.283Z,989.61
2018-03-04T14:14:24.785Z,989.65
2018-03-04T14:15:24.838Z,989.65
2018-03-04T14:17:17.844Z,989.67
2018-03-04T14:18:17.879Z,989.67
2018-03-04T14:20:11.425Z,989.59
2018-03-04T14:21:11.460Z,989.56
2018-03-04T14:23:04.450Z,989.66
2018-03-04T14:24:04.516Z,989.66
2018-03-04T14:25:57.522Z,989.63
2018-03-04T14:26:57.562Z,989.58
2018-03-04T14:28:50.549Z,989.57
2018-03-04T14:29:50.609Z,989.56
2018-03-04T14:31:45.118Z,989.58
2018-03-04T14:32:45.160Z,989.57
2018-03-04T14:34:38.148Z,989.58
2018-03-04T14:35:38.209Z,989.55
2018-03-04T14:37:31.218Z,989.61
2018-03-04T14:38:31.259Z,989.55
2018-03-04T14:40:24.257Z,989.57
2018-03-04T14:41:24.318Z,989.51
2018-03-04T14:43:17.836Z,989.46
2018-03-04T14:44:17.878Z,989.50
2018-03-04T14:46:11.394Z,989.47
2018-03-04T14:47:11.436Z,989.44
2018-03-04T14:49:04.931Z,989.42
2018-03-04T14:50:04.996Z,989.40
2018-03-04T14:51:58.005Z,989.38
2018-03-04T14:52:58.047Z,989.35
2018-03-04T14:54:51.546Z,989.37
2018-03-04T14:55:51.605Z,989.39
2018-03-04T14:57:44.616Z,989.37
2018-03-04T14:58:44.656Z,989.37
2018-03-04T15:00:37.643Z,989.38
2018-03-04T15:01:37.699Z,989.33
2018-03-04T15:03:30.705Z,989.31
2018-03-04T15:04:30.745Z,989.33
2018-03-04T15:06:23.731Z,989.29
2018-03-04T15:07:23.793Z,989.27
2018-03-04T15:09:16.800Z,989.26
2018-03-04T15:10:16.838Z,989.24
2018-03-04T15:12:09.842Z,989.21
2018-03-04T15:13:09.882Z,989.23
2018-03-04T15:15:02.979Z,989.21
2018-03-04T15:16:02.923Z,989.24
2018-03-04T15:17:56.446Z,989.26
2018-03-04T15:18:56.474Z,989.25
2018-03-04T15:20:49.966Z,989.26
2018-03-04T15:21:50.026Z,989.24
2018-03-04T15:23:43.024Z,989.21
2018-03-04T15:24:43.065Z,989.22
2018-03-04T15:26:36.046Z,989.19
2018-03-04T15:27:36.107Z,989.22
2018-03-04T15:29:29.106Z,989.12
2018-03-04T15:30:29.147Z,989.12
2018-03-04T15:32:22.131Z,989.03
2018-03-04T15:33:22.193Z,989.04
2018-03-04T15:35:15.704Z,988.93
2018-03-04T15:36:15.740Z,988.95
2018-03-04T15:38:08.772Z,988.91
2018-03-04T15:39:08.794Z,988.95
2018-03-04T15:41:01.777Z,988.92
2018-03-04T15:42:01.835Z,988.86
2018-03-04T15:43:54.874Z,988.86
2018-03-04T15:44:54.873Z,988.82
2018-03-04T15:46:47.858Z,988.80
2018-03-04T15:47:47.919Z,988.83
2018-03-04T15:49:40.921Z,988.80
2018-03-04T15:50:40.962Z,988.78
2018-03-04T15:52:33.947Z,988.78
2018-03-04T15:53:34.008Z,988.79
2018-03-04T15:55:27.534Z,988.73
2018-03-04T15:56:27.554Z,988.73
2018-03-04T15:58:21.063Z,988.74
2018-03-04T15:59:21.105Z,988.76
2018-03-04T16:01:14.105Z,988.72
2018-03-04T16:02:14.197Z,988.71
2018-03-04T16:04:07.128Z,988.65
2018-03-04T16:05:07.187Z,988.64
2018-03-04T16:07:00.191Z,988.60
2018-03-04T16:08:00.230Z,988.61
2018-03-04T16:09:53.227Z,988.58
2018-03-04T16:10:53.287Z,988.54
2018-03-04T16:12:46.299Z,988.55
2018-03-04T16:13:46.331Z,988.55
2018-03-04T16:15:39.339Z,988.50
2018-03-04T16:16:39.377Z,988.51
2018-03-04T16:18:32.874Z,988.52
2018-03-04T16:19:32.930Z,988.49
2018-03-04T16:21:25.944Z,988.47
2018-03-04T16:22:25.981Z,988.43
2018-03-04T16:24:18.955Z,988.48
2018-03-04T16:25:19.015Z,988.45
2018-03-04T16:27:12.525Z,988.43
2018-03-04T16:28:12.568Z,988.44
2018-03-04T16:30:06.055Z,988.45
2018-03-04T16:31:06.112Z,988.47
2018-03-04T16:32:59.626Z,988.43
2018-03-04T16:33:59.662Z,988.43
2018-03-04T16:35:53.153Z,988.39
2018-03-04T16:36:53.259Z,988.43
2018-03-04T16:38:46.722Z,988.40
2018-03-04T16:39:46.758Z,988.39
2018-03-04T16:41:39.762Z,988.35
2018-03-04T16:42:39.801Z,988.32
2018-03-04T16:44:32.782Z,988.26
2018-03-04T16:45:32.840Z,988.27
2018-03-04T16:47:25.849Z,988.25
2018-03-04T16:48:25.892Z,988.28
2018-03-04T16:50:19.406Z,988.26
2018-03-04T16:51:19.463Z,988.23
2018-03-04T16:53:12.975Z,988.10
2018-03-04T16:54:13.012Z,988.13
2018-03-04T16:56:05.998Z,988.13
2018-03-04T16:57:06.050Z,988.16
2018-03-04T16:58:59.627Z,988.16
2018-03-04T16:59:59.603Z,988.18
2018-03-04T17:01:52.597Z,988.15
2018-03-04T17:02:52.637Z,988.12
2018-03-04T17:04:47.128Z,988.07
2018-03-04T17:05:47.183Z,988.04
2018-03-04T17:07:40.187Z,988.01
2018-03-04T17:08:40.226Z,988.03
2018-03-04T17:10:33.720Z,988.07
2018-03-04T17:11:33.774Z,988.10
2018-03-04T17:13:27.285Z,988.05
2018-03-04T17:14:27.320Z,988.06
2018-03-04T17:16:20.306Z,988.08
2018-03-04T17:17:20.370Z,988.11
2018-03-04T17:19:13.917Z,988.17
2018-03-04T17:20:13.907Z,988.18
2018-03-04T17:22:06.909Z,988.18
2018-03-04T17:23:06.947Z,988.23
2018-03-04T17:24:59.926Z,988.26
2018-03-04T17:25:59.986Z,988.29
2018-03-04T17:27:53.497Z,988.29
2018-03-04T17:28:53.531Z,988.37
2018-03-04T17:30:46.516Z,988.43
2018-03-04T17:31:46.570Z,988.38
2018-03-04T17:33:39.569Z,988.37
2018-03-04T17:34:39.607Z,988.40
2018-03-04T17:36:32.589Z,988.35
2018-03-04T17:37:32.701Z,988.35
2018-03-04T17:39:25.679Z,988.23
2018-03-04T17:40:25.691Z,988.20
2018-03-04T17:42:19.192Z,988.16
2018-03-04T17:43:19.228Z,988.20
2018-03-04T17:45:12.206Z,988.12
2018-03-04T17:46:12.265Z,988.13
2018-03-04T17:48:05.775Z,988.13
2018-03-04T17:49:05.812Z,988.16
2018-03-04T17:50:59.311Z,988.17
2018-03-04T17:51:59.367Z,988.20
2018-03-04T17:53:52.385Z,988.18
2018-03-04T17:54:52.409Z,988.18
2018-03-04T17:56:45.388Z,988.17
2018-03-04T17:57:45.446Z,988.14
2018-03-04T17:59:38.446Z,988.13
2018-03-04T18:00:38.483Z,988.17
2018-03-04T18:02:31.483Z,988.10
2018-03-04T18:03:31.529Z,988.10
2018-03-04T18:05:24.501Z,988.13
2018-03-04T18:06:24.562Z,988.13
2018-03-04T18:08:17.569Z,988.10
2018-03-04T18:09:17.608Z,988.08